sensor_id;sensor_type;location;lat;lon;timestamp;P1;durP1;ratioP1;P2;durP2;ratioP2
23496;SDS011;11925;48.122;11.560;2023-01-16T17:36:11;98.90;;;48.55;;
23496;SDS011;11925;48.122;11.560;2023-01-16T17:38:42;60.88;;;28.77;;
23496;SDS011;11925;48.122;11.560;2023-01-16T17:41:13;33.65;;;16.73;;
23496;SDS011;11925;48.122;11.560;2023-01-16T17:43:44;27.92;;;11.68;;
23496;SDS011;11925;48.122;11.560;2023-01-16T17:46:30;17.15;;;6.60;;
23496;SDS011;11925;48.122;11.560;2023-01-16T17:48:58;11.57;;;5.13;;
23496;SDS011;11925;48.122;11.560;2023-01-16T17:51:28;9.80;;;4.13;;
23496;SDS011;11925;48.122;11.560;2023-01-16T17:53:58;8.30;;;4.13;;
23496;SDS011;11925;48.122;11.560;2023-01-16T17:56:26;8.52;;;4.13;;
23496;SDS011;11925;48.122;11.560;2023-01-16T17:58:55;7.80;;;3.20;;
23496;SDS011;11925;48.122;11.560;2023-01-16T18:01:30;8.07;;;2.60;;
23496;SDS011;11925;48.122;11.560;2023-01-16T18:06:33;6.88;;;3.60;;
23496;SDS011;11925;48.122;11.560;2023-01-16T18:09:02;8.55;;;3.55;;
23496;SDS011;11925;48.122;11.560;2023-01-16T18:11:34;5.80;;;2.47;;
23496;SDS011;11925;48.122;11.560;2023-01-16T18:14:20;5.65;;;2.60;;
23496;SDS011;11925;48.122;11.560;2023-01-16T18:17:07;6.15;;;2.65;;
23496;SDS011;11925;48.122;11.560;2023-01-16T18:19:50;3.88;;;2.70;;
23496;SDS011;11925;48.122;11.560;2023-01-16T18:24:52;5.28;;;2.30;;
23496;SDS011;11925;48.122;11.560;2023-01-16T18:27:21;4.93;;;2.33;;
23496;SDS011;11925;48.122;11.560;2023-01-16T18:29:50;5.13;;;2.60;;
23496;SDS011;11925;48.122;11.560;2023-01-16T18:32:18;5.28;;;2.42;;
23496;SDS011;11925;48.122;11.560;2023-01-16T18:34:48;5.47;;;2.90;;
23496;SDS011;11925;48.122;11.560;2023-01-16T18:37:29;6.63;;;2.97;;
23496;SDS011;11925;48.122;11.560;2023-01-16T18:39:58;4.80;;;2.38;;
23496;SDS011;11925;48.122;11.560;2023-01-16T18:42:53;5.75;;;3.15;;
23496;SDS011;11925;48.122;11.560;2023-01-16T18:45:48;4.72;;;2.30;;
23496;SDS011;11925;48.122;11.560;2023-01-16T18:48:33;7.78;;;2.80;;
23496;SDS011;11925;48.122;11.560;2023-01-16T18:51:27;4.85;;;2.85;;
23496;SDS011;11925;48.122;11.560;2023-01-16T18:54:15;5.10;;;2.78;;
23496;SDS011;11925;48.122;11.560;2023-01-16T18:57:18;5.47;;;2.72;;
23496;SDS011;11925;48.122;11.560;2023-01-16T19:00:12;6.53;;;2.60;;
23496;SDS011;11925;48.122;11.560;2023-01-16T19:02:59;5.30;;;2.35;;
23496;SDS011;11925;48.122;11.560;2023-01-16T19:05:28;5.88;;;3.20;;
23496;SDS011;11925;48.122;11.560;2023-01-16T19:10:31;4.82;;;2.42;;
23496;SDS011;11925;48.122;11.560;2023-01-16T19:15:33;4.43;;;1.90;;
23496;SDS011;11925;48.122;11.560;2023-01-16T19:18:22;6.43;;;2.25;;
23496;SDS011;11925;48.122;11.560;2023-01-16T19:20:50;4.57;;;1.83;;
23496;SDS011;11925;48.122;11.560;2023-01-16T19:23:20;4.45;;;2.10;;
23496;SDS011;11925;48.122;11.560;2023-01-16T19:25:50;3.58;;;2.00;;
23496;SDS011;11925;48.122;11.560;2023-01-16T19:28:19;3.47;;;1.88;;
23496;SDS011;11925;48.122;11.560;2023-01-16T19:30:48;3.47;;;1.75;;
23496;SDS011;11925;48.122;11.560;2023-01-16T19:33:17;2.92;;;1.67;;
23496;SDS011;11925;48.122;11.560;2023-01-16T19:35:47;6.07;;;1.60;;
23496;SDS011;11925;48.122;11.560;2023-01-16T19:38:15;2.00;;;1.30;;
23496;SDS011;11925;48.122;11.560;2023-01-16T19:40:44;4.05;;;1.10;;
23496;SDS011;11925;48.122;11.560;2023-01-16T19:43:20;4.93;;;0.75;;
23496;SDS011;11925;48.122;11.560;2023-01-16T19:46:06;1.20;;;0.60;;
23496;SDS011;11925;48.122;11.560;2023-01-16T19:48:49;2.63;;;0.50;;
23496;SDS011;11925;48.122;11.560;2023-01-16T19:51:23;2.95;;;0.50;;
23496;SDS011;11925;48.122;11.560;2023-01-16T19:53:51;1.63;;;0.40;;
23496;SDS011;11925;48.122;11.560;2023-01-16T19:56:21;1.08;;;0.35;;
23496;SDS011;11925;48.122;11.560;2023-01-16T19:58:52;0.43;;;0.30;;
23496;SDS011;11925;48.122;11.560;2023-01-16T20:01:21;1.35;;;0.40;;
23496;SDS011;11925;48.122;11.560;2023-01-16T20:03:51;0.90;;;0.57;;
23496;SDS011;11925;48.122;11.560;2023-01-16T20:06:20;1.15;;;0.45;;
23496;SDS011;11925;48.122;11.560;2023-01-16T20:11:19;0.40;;;0.30;;
23496;SDS011;11925;48.122;11.560;2023-01-16T20:14:09;1.33;;;0.40;;
23496;SDS011;11925;48.122;11.560;2023-01-16T20:16:37;2.10;;;0.40;;
23496;SDS011;11925;48.122;11.560;2023-01-16T20:19:06;2.40;;;0.50;;
23496;SDS011;11925;48.122;11.560;2023-01-16T20:21:36;1.35;;;0.40;;
23496;SDS011;11925;48.122;11.560;2023-01-16T20:24:04;2.92;;;1.10;;
23496;SDS011;11925;48.122;11.560;2023-01-16T20:26:33;72.47;;;29.65;;
23496;SDS011;11925;48.122;11.560;2023-01-16T20:29:02;77.53;;;38.78;;
23496;SDS011;11925;48.122;11.560;2023-01-16T20:31:32;79.93;;;39.58;;
23496;SDS011;11925;48.122;11.560;2023-01-16T20:34:00;110.45;;;54.13;;
23496;SDS011;11925;48.122;11.560;2023-01-16T20:36:30;88.20;;;39.53;;
23496;SDS011;11925;48.122;11.560;2023-01-16T20:38:58;58.28;;;30.42;;
23496;SDS011;11925;48.122;11.560;2023-01-16T20:41:27;43.22;;;21.38;;
23496;SDS011;11925;48.122;11.560;2023-01-16T20:44:14;30.45;;;14.88;;
23496;SDS011;11925;48.122;11.560;2023-01-16T20:47:04;24.80;;;13.02;;
23496;SDS011;11925;48.122;11.560;2023-01-16T20:49:37;95.00;;;47.90;;
23496;SDS011;11925;48.122;11.560;2023-01-16T20:52:06;98.80;;;49.20;;
23496;SDS011;11925;48.122;11.560;2023-01-16T20:54:35;102.15;;;49.67;;
23496;SDS011;11925;48.122;11.560;2023-01-16T20:57:04;78.28;;;40.88;;
23496;SDS011;11925;48.122;11.560;2023-01-16T20:59:33;85.03;;;41.75;;
23496;SDS011;11925;48.122;11.560;2023-01-16T21:02:01;87.63;;;44.88;;
23496;SDS011;11925;48.122;11.560;2023-01-16T21:04:36;129.63;;;55.72;;
23496;SDS011;11925;48.122;11.560;2023-01-16T21:07:04;97.72;;;43.60;;
23496;SDS011;11925;48.122;11.560;2023-01-16T21:09:33;58.10;;;27.83;;
23496;SDS011;11925;48.122;11.560;2023-01-16T21:12:01;34.40;;;16.25;;
23496;SDS011;11925;48.122;11.560;2023-01-16T21:14:47;23.27;;;10.50;;
23496;SDS011;11925;48.122;11.560;2023-01-16T21:17:19;13.23;;;5.68;;
23496;SDS011;11925;48.122;11.560;2023-01-16T21:20:05;7.03;;;3.30;;
23496;SDS011;11925;48.122;11.560;2023-01-16T21:22:52;6.30;;;2.47;;
23496;SDS011;11925;48.122;11.560;2023-01-16T21:25:21;5.38;;;2.03;;
23496;SDS011;11925;48.122;11.560;2023-01-16T21:27:50;3.97;;;1.42;;
23496;SDS011;11925;48.122;11.560;2023-01-16T21:30:20;2.95;;;1.33;;
23496;SDS011;11925;48.122;11.560;2023-01-16T21:32:50;3.38;;;1.20;;
23496;SDS011;11925;48.122;11.560;2023-01-16T21:37:49;2.33;;;0.80;;
23496;SDS011;11925;48.122;11.560;2023-01-16T21:40:18;1.75;;;0.70;;
23496;SDS011;11925;48.122;11.560;2023-01-16T21:42:47;0.73;;;0.50;;
23496;SDS011;11925;48.122;11.560;2023-01-16T21:45:41;1.83;;;0.60;;
23496;SDS011;11925;48.122;11.560;2023-01-16T21:48:28;1.73;;;0.40;;
23496;SDS011;11925;48.122;11.560;2023-01-16T21:50:57;2.15;;;0.50;;
23496;SDS011;11925;48.122;11.560;2023-01-16T21:53:28;2.00;;;0.63;;
23496;SDS011;11925;48.122;11.560;2023-01-16T21:55:56;1.48;;;0.50;;
23496;SDS011;11925;48.122;11.560;2023-01-16T21:58:28;1.25;;;0.50;;
23496;SDS011;11925;48.122;11.560;2023-01-16T22:00:57;1.00;;;0.40;;
23496;SDS011;11925;48.122;11.560;2023-01-16T22:03:32;4.63;;;0.40;;
23496;SDS011;11925;48.122;11.560;2023-01-16T22:06:01;1.52;;;0.50;;
23496;SDS011;11925;48.122;11.560;2023-01-16T22:08:35;0.95;;;0.50;;
23496;SDS011;11925;48.122;11.560;2023-01-16T22:11:05;1.50;;;0.70;;
23496;SDS011;11925;48.122;11.560;2023-01-16T22:13:52;1.30;;;0.63;;
23496;SDS011;11925;48.122;11.560;2023-01-16T22:16:38;1.20;;;0.40;;
23496;SDS011;11925;48.122;11.560;2023-01-16T22:19:26;0.43;;;0.30;;
23496;SDS011;11925;48.122;11.560;2023-01-16T22:21:58;1.17;;;0.40;;
23496;SDS011;11925;48.122;11.560;2023-01-16T22:24:27;1.23;;;0.50;;
23496;SDS011;11925;48.122;11.560;2023-01-16T22:26:55;0.60;;;0.30;;
23496;SDS011;11925;48.122;11.560;2023-01-16T22:29:24;0.85;;;0.32;;
23496;SDS011;11925;48.122;11.560;2023-01-16T22:31:52;0.60;;;0.38;;
23496;SDS011;11925;48.122;11.560;2023-01-16T22:34:21;0.50;;;0.30;;
23496;SDS011;11925;48.122;11.560;2023-01-16T22:36:51;0.70;;;0.30;;
23496;SDS011;11925;48.122;11.560;2023-01-16T22:39:20;0.52;;;0.45;;
23496;SDS011;11925;48.122;11.560;2023-01-16T22:41:48;1.13;;;0.45;;
23496;SDS011;11925;48.122;11.560;2023-01-16T22:44:17;1.35;;;0.38;;
23496;SDS011;11925;48.122;11.560;2023-01-16T22:47:03;1.05;;;0.45;;
23496;SDS011;11925;48.122;11.560;2023-01-16T22:49:32;1.20;;;0.32;;
23496;SDS011;11925;48.122;11.560;2023-01-16T22:52:02;1.20;;;0.40;;
23496;SDS011;11925;48.122;11.560;2023-01-16T22:54:31;1.33;;;0.50;;
23496;SDS011;11925;48.122;11.560;2023-01-16T22:56:59;2.03;;;0.50;;
23496;SDS011;11925;48.122;11.560;2023-01-16T22:59:28;1.85;;;0.43;;
23496;SDS011;11925;48.122;11.560;2023-01-16T23:01:56;1.30;;;0.50;;
23496;SDS011;11925;48.122;11.560;2023-01-16T23:04:25;2.33;;;0.50;;
23496;SDS011;11925;48.122;11.560;2023-01-16T23:06:54;1.17;;;0.50;;
23496;SDS011;11925;48.122;11.560;2023-01-16T23:09:24;2.78;;;0.38;;
23496;SDS011;11925;48.122;11.560;2023-01-16T23:11:52;1.02;;;0.40;;
23496;SDS011;11925;48.122;11.560;2023-01-16T23:14:22;0.90;;;0.25;;
23496;SDS011;11925;48.122;11.560;2023-01-16T23:16:52;1.38;;;0.50;;
23496;SDS011;11925;48.122;11.560;2023-01-16T23:19:23;0.82;;;0.40;;
23496;SDS011;11925;48.122;11.560;2023-01-16T23:21:53;1.90;;;0.40;;
23496;SDS011;11925;48.122;11.560;2023-01-16T23:24:22;0.73;;;0.30;;
23496;SDS011;11925;48.122;11.560;2023-01-16T23:26:53;3.72;;;0.50;;
23496;SDS011;11925;48.122;11.560;2023-01-16T23:29:23;0.77;;;0.38;;
23496;SDS011;11925;48.122;11.560;2023-01-16T23:31:52;0.90;;;0.55;;
23496;SDS011;11925;48.122;11.560;2023-01-16T23:34:21;1.20;;;0.30;;
23496;SDS011;11925;48.122;11.560;2023-01-16T23:36:52;2.13;;;0.40;;
23496;SDS011;11925;48.122;11.560;2023-01-16T23:39:21;0.88;;;0.40;;
23496;SDS011;11925;48.122;11.560;2023-01-16T23:41:50;1.20;;;0.57;;
23496;SDS011;11925;48.122;11.560;2023-01-16T23:44:37;0.63;;;0.30;;
23496;SDS011;11925;48.122;11.560;2023-01-16T23:47:09;1.80;;;0.40;;
23496;SDS011;11925;48.122;11.560;2023-01-16T23:49:39;2.05;;;0.50;;
23496;SDS011;11925;48.122;11.560;2023-01-16T23:52:09;1.80;;;0.40;;
23496;SDS011;11925;48.122;11.560;2023-01-16T23:54:39;0.95;;;0.40;;
23496;SDS011;11925;48.122;11.560;2023-01-16T23:57:09;2.35;;;0.40;;
23496;SDS011;11925;48.122;11.560;2023-01-16T23:59:39;0.75;;;0.30;;
